createdAt,value
2019-01-14T00:03:42.819Z,98782.00
2019-01-14T00:08:44.063Z,98792.00
2019-01-14T00:13:45.303Z,98820.00
2019-01-14T00:18:46.659Z,98827.00
2019-01-14T00:23:47.887Z,98831.00
2019-01-14T00:28:49.162Z,98851.00
2019-01-14T00:33:52.326Z,98875.00
2019-01-14T00:38:53.586Z,98876.00
2019-01-14T00:43:54.847Z,98892.00
2019-01-14T00:48:56.090Z,98906.00
2019-01-14T00:53:57.340Z,98932.00
2019-01-14T00:58:58.594Z,98941.00
2019-01-14T01:03:59.819Z,98966.00
2019-01-14T01:09:01.289Z,98965.00
2019-01-14T01:14:02.829Z,98961.00
2019-01-14T01:19:04.192Z,98963.00
2019-01-14T01:24:05.530Z,98967.00
2019-01-14T01:29:06.915Z,98983.00
2019-01-14T01:34:08.298Z,98988.00
2019-01-14T01:39:09.649Z,99009.00
2019-01-14T01:44:10.870Z,99002.00
2019-01-14T01:49:12.125Z,99016.00
2019-01-14T01:54:13.364Z,99053.00
2019-01-14T01:59:14.608Z,99070.00
2019-01-14T02:04:15.867Z,99065.00
2019-01-14T02:09:17.109Z,99083.00
2019-01-14T02:14:18.752Z,99080.00
2019-01-14T02:19:19.985Z,99088.00
2019-01-14T02:24:21.225Z,99092.00
2019-01-14T02:29:23.726Z,99109.00
2019-01-14T02:34:24.972Z,99123.00
2019-01-14T02:39:26.229Z,99137.00
2019-01-14T02:44:27.578Z,99140.00
2019-01-14T02:49:28.825Z,99141.00
2019-01-14T02:54:30.064Z,99137.00
2019-01-14T02:59:31.304Z,99133.00
2019-01-14T03:04:32.555Z,99121.00
2019-01-14T03:09:33.990Z,99144.00
2019-01-14T03:14:35.243Z,99147.00
2019-01-14T03:19:36.497Z,99147.00
2019-01-14T03:24:37.745Z,99152.00
2019-01-14T03:29:38.985Z,99134.00
2019-01-14T03:34:40.241Z,99141.00
2019-01-14T03:39:41.494Z,99124.00
2019-01-14T03:44:42.743Z,99124.00
2019-01-14T03:49:43.985Z,99135.00
2019-01-14T03:54:45.223Z,99142.00
2019-01-14T03:59:46.481Z,99135.00
2019-01-14T04:04:47.701Z,99153.00
2019-01-14T04:09:48.934Z,99168.00
2019-01-14T04:14:50.161Z,99168.00
2019-01-14T04:19:51.412Z,99171.00
2019-01-14T04:24:52.662Z,99186.00
2019-01-14T04:29:53.911Z,99190.00
2019-01-14T04:34:55.151Z,99209.00
2019-01-14T04:39:56.384Z,99210.00
2019-01-14T04:44:57.617Z,99211.00
2019-01-14T04:49:58.879Z,99207.00
2019-01-14T04:55:00.251Z,99218.00
2019-01-14T05:00:08.943Z,99242.00
2019-01-14T05:05:10.779Z,99249.00
2019-01-14T05:10:16.030Z,99261.00
2019-01-14T05:15:17.391Z,99278.00
2019-01-14T05:20:22.572Z,99274.00
2019-01-14T05:25:24.225Z,99262.00
2019-01-14T05:30:25.567Z,99265.00
2019-01-14T05:35:29.187Z,99266.00
2019-01-14T05:40:30.439Z,99274.00
2019-01-14T05:45:31.692Z,99276.00
2019-01-14T05:50:32.939Z,99272.00
2019-01-14T05:55:34.192Z,99276.00
2019-01-14T06:00:37.347Z,99268.00
2019-01-14T06:05:38.601Z,99275.00
2019-01-14T06:10:39.852Z,99281.00
2019-01-14T06:15:41.115Z,99288.00
2019-01-14T06:20:42.534Z,99289.00
2019-01-14T06:25:43.868Z,99295.00
2019-01-14T06:30:45.106Z,99318.00
2019-01-14T06:35:46.456Z,99326.00
2019-01-14T06:40:47.794Z,99335.00
2019-01-14T06:45:49.010Z,99353.00
2019-01-14T06:50:50.254Z,99372.00
2019-01-14T06:55:51.491Z,99373.00
2019-01-14T07:00:52.744Z,99369.00
2019-01-14T07:05:54.005Z,99382.00
2019-01-14T07:10:55.793Z,99406.00
2019-01-14T07:15:57.029Z,99405.00
2019-01-14T07:20:58.291Z,99426.00
2019-01-14T07:25:59.536Z,99421.00
2019-01-14T07:31:00.981Z,99422.00
2019-01-14T07:36:02.891Z,99413.00
2019-01-14T07:41:04.399Z,99419.00
2019-01-14T07:46:05.649Z,99425.00
2019-01-14T07:51:06.908Z,99432.00
2019-01-14T07:56:08.841Z,99433.00
2019-01-14T08:01:10.178Z,99440.00
2019-01-14T08:06:11.442Z,99455.00
2019-01-14T08:11:12.684Z,99468.00
2019-01-14T08:16:13.921Z,99477.00
2019-01-14T08:21:15.151Z,99472.00
2019-01-14T08:26:16.403Z,99482.00
2019-01-14T08:31:17.652Z,99514.00
2019-01-14T08:36:18.916Z,99513.00
2019-01-14T08:41:21.353Z,99514.00
2019-01-14T08:46:22.904Z,99521.00
2019-01-14T08:51:24.145Z,99529.00
2019-01-14T08:56:25.387Z,99541.00
2019-01-14T09:01:26.627Z,99557.00
2019-01-14T09:06:27.886Z,99544.00
2019-01-14T09:11:29.181Z,99561.00
2019-01-14T09:16:30.435Z,99563.00
2019-01-14T09:21:31.693Z,99550.00
2019-01-14T09:26:33.049Z,99574.00
2019-01-14T09:31:34.605Z,99574.00
2019-01-14T09:36:35.845Z,99585.00
2019-01-14T09:41:37.062Z,99592.00
2019-01-14T09:46:38.453Z,99603.00
2019-01-14T09:51:39.685Z,99614.00
2019-01-14T09:56:40.930Z,99611.00
2019-01-14T10:01:42.171Z,99610.00
2019-01-14T10:06:43.484Z,99604.00
2019-01-14T10:11:44.733Z,99610.00
2019-01-14T10:16:46.174Z,99614.00
2019-01-14T10:21:47.538Z,99614.00
2019-01-14T10:26:48.763Z,99611.00
2019-01-14T10:31:50.006Z,99626.00
2019-01-14T10:36:51.260Z,99635.00
2019-01-14T10:41:52.623Z,99637.00
2019-01-14T10:46:53.881Z,99647.00
2019-01-14T10:51:55.164Z,99651.00
2019-01-14T10:56:56.435Z,99663.00
2019-01-14T11:01:57.728Z,99658.00
2019-01-14T11:06:59.082Z,99647.00
2019-01-14T11:12:00.304Z,99648.00
2019-01-14T11:17:01.570Z,99657.00
2019-01-14T11:22:03.185Z,99677.00
2019-01-14T11:27:04.426Z,99690.00
2019-01-14T11:32:05.667Z,99689.00
2019-01-14T11:37:06.900Z,99675.00
2019-01-14T11:42:08.130Z,99694.00
2019-01-14T11:47:09.365Z,99694.00
2019-01-14T11:52:10.613Z,99688.00
2019-01-14T11:57:11.942Z,99708.00
2019-01-14T12:02:13.191Z,99713.00
2019-01-14T12:07:14.447Z,99709.00
2019-01-14T12:12:15.715Z,99724.00
2019-01-14T12:17:16.978Z,99733.00
2019-01-14T12:22:18.244Z,99736.00
2019-01-14T12:27:19.624Z,99740.00
2019-01-14T12:32:20.854Z,99750.00
2019-01-14T12:37:22.122Z,99762.00
2019-01-14T12:42:23.405Z,99765.00
2019-01-14T12:47:24.658Z,99763.00
2019-01-14T12:52:25.894Z,99761.00
2019-01-14T12:57:27.165Z,99760.00
2019-01-14T13:02:28.398Z,99763.00
2019-01-14T13:07:29.657Z,99764.00
2019-01-14T13:12:31.023Z,99761.00
2019-01-14T13:17:32.289Z,99773.00
2019-01-14T13:22:33.630Z,99774.00
2019-01-14T13:27:34.900Z,99777.00
2019-01-14T13:32:36.133Z,99793.00
2019-01-14T13:37:37.491Z,99797.00
2019-01-14T13:42:38.840Z,99809.00
2019-01-14T13:47:40.422Z,99823.00
2019-01-14T13:52:41.980Z,99825.00
2019-01-14T13:57:43.343Z,99826.00
2019-01-14T14:02:44.813Z,99821.00
2019-01-14T14:07:46.174Z,99829.00
2019-01-14T14:12:47.625Z,99827.00
2019-01-14T14:17:48.977Z,99824.00
2019-01-14T14:22:50.439Z,99838.00
2019-01-14T14:27:51.680Z,99836.00
2019-01-14T14:32:53.141Z,99849.00
2019-01-14T14:38:00.924Z,99867.00
2019-01-14T14:42:58.260Z,99876.00
2019-01-14T14:47:59.505Z,99880.00
2019-01-14T14:53:00.755Z,99889.00
2019-01-14T14:58:02.227Z,99906.00
2019-01-14T15:03:03.783Z,99911.00
2019-01-14T15:08:05.896Z,99924.00
2019-01-14T15:13:07.186Z,99939.00
2019-01-14T15:18:08.436Z,99954.00
2019-01-14T15:23:09.711Z,99960.00
2019-01-14T15:28:10.973Z,99976.00
2019-01-14T15:33:12.233Z,99988.00
2019-01-14T15:38:13.506Z,100005.00
2019-01-14T15:43:14.765Z,100000.00
2019-01-14T15:48:16.042Z,100018.00
2019-01-14T15:53:17.287Z,100016.00
2019-01-14T15:58:18.585Z,100016.00
2019-01-14T16:03:19.842Z,100024.00
2019-01-14T16:08:21.072Z,100049.00
2019-01-14T16:13:22.323Z,100047.00
2019-01-14T16:18:23.575Z,100057.00
2019-01-14T16:23:24.840Z,100045.00
2019-01-14T16:28:26.084Z,100046.00
2019-01-14T16:33:27.472Z,100061.00
2019-01-14T16:38:28.746Z,100083.00
2019-01-14T16:43:29.992Z,100077.00
2019-01-14T16:48:31.298Z,100077.00
2019-01-14T16:53:32.577Z,100099.00
2019-01-14T16:58:33.907Z,100110.00
2019-01-14T17:03:35.151Z,100117.00
2019-01-14T17:08:36.414Z,100121.00
2019-01-14T17:13:37.694Z,100139.00
2019-01-14T17:18:39.037Z,100145.00
2019-01-14T17:23:40.304Z,100147.00
2019-01-14T17:28:41.580Z,100147.00
2019-01-14T17:33:42.862Z,100144.00
2019-01-14T17:38:44.187Z,100153.00
2019-01-14T17:43:45.449Z,100154.00
2019-01-14T17:48:46.695Z,100171.00
2019-01-14T17:53:47.940Z,100196.00
2019-01-14T17:58:49.222Z,100206.00
2019-01-14T18:03:50.490Z,100224.00
2019-01-14T18:08:51.750Z,100234.00
2019-01-14T18:13:53.010Z,100219.00
2019-01-14T18:18:54.244Z,100230.00
2019-01-14T18:23:55.506Z,100238.00
2019-01-14T18:28:56.795Z,100232.00
2019-01-14T18:33:58.047Z,100261.00
2019-01-14T18:38:59.305Z,100249.00
2019-01-14T18:44:00.775Z,100265.00
2019-01-14T18:49:02.053Z,100269.00
2019-01-14T18:54:03.700Z,100277.00
2019-01-14T18:59:04.966Z,100279.00
2019-01-14T19:04:06.267Z,100285.00
2019-01-14T19:09:08.154Z,100281.00
2019-01-14T19:14:09.431Z,100281.00
2019-01-14T19:19:10.666Z,100281.00
2019-01-14T19:24:11.909Z,100294.00
2019-01-14T19:29:13.201Z,100308.00
2019-01-14T19:34:14.471Z,100322.00
2019-01-14T19:39:15.720Z,100338.00
2019-01-14T19:44:16.971Z,100343.00
2019-01-14T19:49:18.233Z,100344.00
2019-01-14T19:54:19.490Z,100360.00
2019-01-14T19:59:20.935Z,100362.00
2019-01-14T20:04:22.234Z,100364.00
2019-01-14T20:09:23.504Z,100380.00
2019-01-14T20:14:24.774Z,100382.00
2019-01-14T20:19:26.046Z,100386.00
2019-01-14T20:24:27.443Z,100392.00
2019-01-14T20:29:28.738Z,100399.00
2019-01-14T20:34:30.003Z,100403.00
2019-01-14T20:39:31.248Z,100400.00
2019-01-14T20:44:32.520Z,100394.00
2019-01-14T20:49:33.794Z,100378.00
2019-01-14T20:54:35.064Z,100388.00
2019-01-14T20:59:38.698Z,100391.00
2019-01-14T21:04:41.529Z,100387.00
2019-01-14T21:09:42.802Z,100389.00
2019-01-14T21:14:44.067Z,100404.00
2019-01-14T21:19:45.361Z,100413.00
2019-01-14T21:24:46.614Z,100422.00
2019-01-14T21:29:47.872Z,100426.00
2019-01-14T21:34:49.157Z,100436.00
2019-01-14T21:39:50.402Z,100447.00
2019-01-14T21:44:51.650Z,100441.00
2019-01-14T21:49:52.895Z,100450.00
2019-01-14T21:54:54.157Z,100456.00
2019-01-14T21:59:55.448Z,100446.00
2019-01-14T22:04:56.702Z,100461.00
2019-01-14T22:09:57.979Z,100473.00
2019-01-14T22:14:59.306Z,100479.00
2019-01-14T22:20:00.565Z,100488.00
2019-01-14T22:25:01.907Z,100492.00
2019-01-14T22:30:10.376Z,100499.00
2019-01-14T22:35:12.091Z,100504.00
2019-01-14T22:40:14.043Z,100498.00
2019-01-14T22:45:15.381Z,100493.00
2019-01-14T22:50:18.030Z,100489.00
2019-01-14T22:55:19.389Z,100490.00
2019-01-14T23:00:47.696Z,100491.00
2019-01-14T23:05:49.135Z,100502.00
2019-01-14T23:10:50.951Z,100513.00
2019-01-14T23:15:52.284Z,100519.00
2019-01-14T23:20:53.544Z,100519.00
2019-01-14T23:25:54.801Z,100528.00
2019-01-14T23:30:56.046Z,100540.00
2019-01-14T23:35:57.365Z,100538.00
2019-01-14T23:40:58.866Z,100531.00
2019-01-14T23:46:00.121Z,100527.00
2019-01-14T23:51:01.374Z,100546.00
2019-01-14T23:56:03.271Z,100549.00
